Time;durP1;ratioP1;P1;durP2;ratioP2;P2;SDS_P1;SDS_P2;PMS_P1;PMS_P2;Temp;Humidity;BMP_temperature;BMP_pressure;BME280_temperature;BME280_humidity;BME280_pressure;Samples;Min_cycle;Max_cycle;Signal;HPM_P1;HPM_P2
2022/06/09 00:01:32;;;;;;;;;;;;;;;24.07;58.39;98984.78;5093313;28;20065;-47
2022/06/09 00:04:03;;;;;;;;;;;;;;;23.99;58.82;98978.19;5092729;28;20401;-50
2022/06/09 00:06:52;;;;;;;;;;;;;;;23.94;58.92;98973.66;5093071;28;19919;-48
2022/06/09 00:09:18;;;;;;;;;;;;;;;24.12;57.95;98977.28;5087305;28;19912;-47
2022/06/09 00:11:47;;;;;;;;;;;;;;;24.05;58.38;98967.97;5093225;28;19912;-52
2022/06/09 00:14:12;;;;;;;;;;;;;;;23.91;58.65;98968.88;5092940;28;19912;-51
2022/06/09 00:16:38;;;;;;;;;;;;;;;23.96;58.46;98973.34;5093215;28;20010;-48
2022/06/09 00:19:05;;;;;;;;;;;;;;;24.08;58.09;98972.78;5093285;28;19927;-51
2022/06/09 00:21:30;;;;;;;;;;;;;;;23.94;58.57;98967.44;5092620;28;19923;-50
2022/06/09 00:23:55;;;;;;;;;;;;;;;24.08;57.99;98972.78;5092514;28;19913;-48
2022/06/09 00:26:21;;;;;;;;;;;;;;;24.04;58.15;98967.16;5092780;28;19927;-50
2022/06/09 00:28:46;;;;;;;;;;;;;;;23.34;60.16;98972.09;5092914;28;20371;-48
2022/06/09 00:31:11;;;;;;;;;;;;;;;23.28;60.49;98975.22;5092651;28;19918;-49
2022/06/09 00:33:37;;;;;;;;;;;;;;;23.60;59.42;98968.78;5092378;28;19974;-49
2022/06/09 00:36:02;;;;;;;;;;;;;;;23.51;59.48;98965.97;5091977;28;19919;-49
2022/06/09 00:38:28;;;;;;;;;;;;;;;23.60;59.10;98977.72;5092456;28;19919;-50
2022/06/09 00:40:59;;;;;;;;;;;;;;;23.39;59.70;98971.16;5092539;28;20385;-49
2022/06/09 00:43:26;;;;;;;;;;;;;;;23.11;60.80;98971.22;5092404;28;19919;-50
2022/06/09 00:46:02;;;;;;;;;;;;;;;23.29;60.21;98966.00;5092292;28;19935;-48
2022/06/09 00:48:37;;;;;;;;;;;;;;;23.38;59.78;98966.84;5092500;28;19920;-51
2022/06/09 00:51:15;;;;;;;;;;;;;;;23.40;59.40;98967.34;5093030;28;20060;-48
2022/06/09 00:53:40;;;;;;;;;;;;;;;23.27;59.34;98947.28;5092253;28;19920;-48
2022/06/09 00:56:08;;;;;;;;;;;;;;;23.11;60.00;98954.97;5092542;28;19998;-48
2022/06/09 00:58:35;;;;;;;;;;;;;;;23.10;60.20;98953.38;5092244;28;20011;-48
2022/06/09 01:01:02;;;;;;;;;;;;;;;23.39;59.28;98960.31;5092584;28;19916;-49
2022/06/09 01:03:36;;;;;;;;;;;;;;;23.61;58.30;98956.81;5092464;28;19919;-49
2022/06/09 01:06:05;;;;;;;;;;;;;;;23.58;58.37;98952.00;5090762;28;19919;-51
2022/06/09 01:08:32;;;;;;;;;;;;;;;23.68;58.16;98954.44;5091722;28;19912;-49
2022/06/09 01:10:57;;;;;;;;;;;;;;;23.72;57.96;98952.75;5092371;28;19912;-48
2022/06/09 01:13:22;;;;;;;;;;;;;;;23.48;58.21;98947.59;5091896;28;20079;-50
2022/06/09 01:15:48;;;;;;;;;;;;;;;23.01;59.36;98953.25;5091894;28;19912;-49
2022/06/09 01:18:19;;;;;;;;;;;;;;;23.31;58.93;98959.13;5091500;28;19956;-48
2022/06/09 01:21:03;;;;;;;;;;;;;;;23.45;58.55;98950.13;5094791;28;20006;-48
2022/06/09 01:23:37;;;;;;;;;;;;;;;23.60;57.97;98947.06;5112039;28;19916;-49
2022/06/09 01:26:15;;;;;;;;;;;;;;;23.30;59.08;98948.56;5112440;28;19918;-50
2022/06/09 01:28:52;;;;;;;;;;;;;;;23.26;59.45;98953.00;5111687;28;19991;-50
2022/06/09 01:31:37;;;;;;;;;;;;;;;22.97;60.11;98951.47;5111736;28;19934;-51
2022/06/09 01:34:10;;;;;;;;;;;;;;;22.95;60.12;98943.63;5112009;28;19963;-50
2022/06/09 01:36:41;;;;;;;;;;;;;;;22.98;60.07;98943.03;5105594;28;19916;-49
2022/06/09 01:39:07;;;;;;;;;;;;;;;22.58;61.24;98952.81;5091321;28;19912;-51
2022/06/09 01:41:33;;;;;;;;;;;;;;;22.55;61.80;98943.38;5091705;28;19912;-49
2022/06/09 01:43:59;;;;;;;;;;;;;;;22.97;60.27;98948.75;5091467;28;19912;-51
2022/06/09 01:46:33;;;;;;;;;;;;;;;23.15;60.50;98947.00;5091098;28;19919;-49
2022/06/09 01:49:18;;;;;;;;;;;;;;;23.16;59.83;98951.34;5090834;28;20007;-48
2022/06/09 01:51:45;;;;;;;;;;;;;;;22.96;60.58;98956.09;5091089;28;19919;-49
2022/06/09 01:54:13;;;;;;;;;;;;;;;23.13;60.03;98951.94;5091339;28;20006;-48
2022/06/09 01:56:39;;;;;;;;;;;;;;;22.92;61.04;98949.63;5091320;28;19919;-51
2022/06/09 01:59:12;;;;;;;;;;;;;;;22.96;61.08;98942.53;5091217;28;20368;-49
2022/06/09 02:01:42;;;;;;;;;;;;;;;22.94;61.23;98949.34;5090803;28;19912;-51
2022/06/09 02:04:13;;;;;;;;;;;;;;;23.04;60.80;98946.47;5091486;28;19912;-48
2022/06/09 02:06:41;;;;;;;;;;;;;;;23.08;60.61;98942.03;5091088;28;19951;-52
2022/06/09 02:09:06;;;;;;;;;;;;;;;22.97;60.81;98935.97;5091006;28;19912;-48
2022/06/09 02:11:32;;;;;;;;;;;;;;;23.25;59.67;98943.25;5090183;28;20268;-51
2022/06/09 02:13:58;;;;;;;;;;;;;;;23.02;60.07;98943.22;5090572;28;19923;-50
2022/06/09 02:16:24;;;;;;;;;;;;;;;23.23;59.68;98941.66;5090861;28;20008;-50
2022/06/09 02:18:52;;;;;;;;;;;;;;;23.33;59.31;98939.84;5090565;28;19916;-47
2022/06/09 02:21:32;;;;;;;;;;;;;;;23.45;58.80;98942.00;5098434;28;19912;-51
2022/06/09 02:23:57;;;;;;;;;;;;;;;23.34;59.19;98939.53;5111165;28;19950;-50
2022/06/09 02:26:23;;;;;;;;;;;;;;;23.50;58.59;98948.09;5111049;28;19958;-51
2022/06/09 02:28:48;;;;;;;;;;;;;;;23.41;58.74;98950.75;5111113;28;19922;-49
2022/06/09 02:31:14;;;;;;;;;;;;;;;23.46;58.54;98947.13;5111612;28;19912;-48
2022/06/09 02:33:39;;;;;;;;;;;;;;;23.31;59.06;98944.78;5110575;28;19924;-48
2022/06/09 02:36:05;;;;;;;;;;;;;;;23.37;58.98;98944.31;5108946;28;20351;-51
2022/06/09 02:38:30;;;;;;;;;;;;;;;23.25;59.68;98943.25;5090625;28;20379;-50
2022/06/09 02:40:55;;;;;;;;;;;;;;;23.32;59.50;98938.22;5091018;28;20018;-49
2022/06/09 02:43:21;;;;;;;;;;;;;;;23.41;59.19;98937.16;5090444;28;19912;-49
2022/06/09 02:45:47;;;;;;;;;;;;;;;23.52;58.89;98935.00;5090729;28;19912;-51
2022/06/09 02:48:13;;;;;;;;;;;;;;;23.55;58.82;98948.00;5090773;28;19927;-49
2022/06/09 02:50:38;;;;;;;;;;;;;;;23.69;58.34;98942.47;5090555;28;19955;-51
2022/06/09 02:53:04;;;;;;;;;;;;;;;23.67;58.44;98939.28;5090290;28;20660;-47
2022/06/09 02:55:29;;;;;;;;;;;;;;;23.74;58.24;98938.81;5090675;28;19963;-49
2022/06/09 02:57:54;;;;;;;;;;;;;;;23.70;58.53;98948.72;5090718;28;20363;-48
2022/06/09 03:00:20;;;;;;;;;;;;;;;23.71;58.34;98945.69;5090638;28;19916;-47
2022/06/09 03:02:56;;;;;;;;;;;;;;;23.58;59.02;98950.06;5090486;28;20492;-51
2022/06/09 03:05:22;;;;;;;;;;;;;;;23.62;58.76;98948.34;5090309;28;20311;-47
2022/06/09 03:07:47;;;;;;;;;;;;;;;23.62;58.80;98947.53;5090511;28;20351;-51
2022/06/09 03:10:13;;;;;;;;;;;;;;;23.72;58.31;98938.34;5090958;28;19927;-49
2022/06/09 03:12:38;;;;;;;;;;;;;;;23.73;58.23;98940.75;5089978;28;19992;-48
2022/06/09 03:15:07;;;;;;;;;;;;;;;23.69;58.44;98942.47;5089425;28;20307;-47
2022/06/09 03:17:33;;;;;;;;;;;;;;;23.77;58.16;98949.88;5090130;28;19913;-45
2022/06/09 03:19:58;;;;;;;;;;;;;;;23.73;58.20;98946.19;5090063;28;19912;-46
2022/06/09 03:22:23;;;;;;;;;;;;;;;23.72;58.17;98944.59;5107396;28;19912;-48
2022/06/09 03:24:49;;;;;;;;;;;;;;;23.65;58.28;98949.66;5110819;28;20351;-47
2022/06/09 03:27:14;;;;;;;;;;;;;;;23.74;58.09;98944.25;5110625;28;19918;-47
2022/06/09 03:29:40;;;;;;;;;;;;;;;23.36;59.71;98947.34;5110638;28;20333;-47
2022/06/09 03:32:05;;;;;;;;;;;;;;;23.62;58.85;98948.34;5110473;28;20368;-48
2022/06/09 03:34:30;;;;;;;;;;;;;;;23.68;58.89;98951.72;5110117;28;19916;-48
2022/06/09 03:36:56;;;;;;;;;;;;;;;23.77;58.44;98947.16;5100617;28;19919;-50
2022/06/09 03:39:21;;;;;;;;;;;;;;;23.78;58.26;98940.66;5088930;28;19912;-48
2022/06/09 03:41:46;;;;;;;;;;;;;;;23.94;57.83;98942.97;5094048;28;19919;-52
2022/06/09 03:44:11;;;;;;;;;;;;;;;24.03;57.48;98934.84;5094026;28;19964;-51
2022/06/09 03:46:37;;;;;;;;;;;;;;;24.07;57.28;98936.66;5093793;28;19919;-49
2022/06/09 03:49:03;;;;;;;;;;;;;;;24.07;57.39;98947.53;5093561;28;19912;-48
2022/06/09 03:51:28;;;;;;;;;;;;;;;24.08;57.32;98943.66;5093859;28;20406;-47
2022/06/09 03:53:54;;;;;;;;;;;;;;;24.03;57.42;98940.28;5093611;28;19913;-47
2022/06/09 03:56:22;;;;;;;;;;;;;;;24.12;57.17;98941.97;5093313;28;20026;-37
2022/06/09 03:58:47;;;;;;;;;;;;;;;24.21;56.73;98944.69;5093404;28;20447;-39
2022/06/09 04:01:17;;;;;;;;;;;;;;;24.12;57.27;98950.13;5093947;28;19973;-37
2022/06/09 04:03:43;;;;;;;;;;;;;;;24.03;57.36;98946.53;5093139;28;19912;-37
2022/06/09 04:06:11;;;;;;;;;;;;;;;24.00;57.61;98955.31;5093367;28;19919;-37
2022/06/09 04:08:37;;;;;;;;;;;;;;;24.06;57.52;98953.25;5093244;28;19916;-37
2022/06/09 04:11:02;;;;;;;;;;;;;;;23.98;57.51;98954.81;5093737;28;19916;-37
2022/06/09 04:13:27;;;;;;;;;;;;;;;24.08;57.15;98951.81;5093513;28;19912;-37
2022/06/09 04:15:52;;;;;;;;;;;;;;;24.18;56.85;98945.34;5093534;28;20519;-38
2022/06/09 04:18:18;;;;;;;;;;;;;;;24.19;56.94;98958.59;5093038;28;19912;-37
2022/06/09 04:20:43;;;;;;;;;;;;;;;24.19;56.79;98955.88;5096197;28;19911;-37
2022/06/09 04:23:08;;;;;;;;;;;;;;;24.24;56.59;98954.97;5113622;28;19912;-38
2022/06/09 04:25:34;;;;;;;;;;;;;;;24.29;56.80;98954.00;5113338;28;19998;-38
2022/06/09 04:27:59;;;;;;;;;;;;;;;24.09;57.61;98948.00;5113230;28;19911;-38
2022/06/09 04:30:24;;;;;;;;;;;;;;;24.24;57.57;98956.84;5109067;28;20425;-36
2022/06/09 04:32:50;;;;;;;;;;;;;;;24.30;56.83;98950.97;5092347;28;20375;-37
2022/06/09 04:35:15;;;;;;;;;;;;;;;23.99;57.91;98951.81;5092919;28;20363;-37
2022/06/09 04:37:59;;;;;;;;;;;;;;;24.36;57.06;98948.91;5092701;28;19942;-38
2022/06/09 04:40:25;;;;;;;;;;;;;;;24.62;56.45;98942.78;5092685;28;19919;-36
2022/06/09 04:42:50;;;;;;;;;;;;;;;24.62;56.55;98949.03;5092597;28;19916;-39
2022/06/09 04:45:16;;;;;;;;;;;;;;;25.08;54.64;98949.59;5091868;28;19912;-37
2022/06/09 04:47:42;;;;;;;;;;;;;;;25.75;53.93;98945.59;5091841;28;20294;-37
2022/06/09 04:50:07;;;;;;;;;;;;;;;26.25;52.16;98944.19;5091823;28;20321;-37
2022/06/09 04:52:34;;;;;;;;;;;;;;;26.76;50.31;98945.06;5091375;28;19916;-38
2022/06/09 04:55:00;;;;;;;;;;;;;;;26.79;50.62;98949.06;5090969;28;20009;-37
2022/06/09 04:57:26;;;;;;;;;;;;;;;26.83;50.13;98955.47;5090149;28;20346;-38
2022/06/09 04:59:51;;;;;;;;;;;;;;;26.96;49.60;98954.44;5091245;28;19962;-37
2022/06/09 05:02:17;;;;;;;;;;;;;;;26.98;49.15;98952.16;5090872;28;19912;-40
2022/06/09 05:04:42;;;;;;;;;;;;;;;26.37;51.41;98963.38;5091403;28;19969;-50
2022/06/09 05:07:08;;;;;;;;;;;;;;;26.47;50.58;98968.47;5091052;28;19935;-49
2022/06/09 05:09:33;;;;;;;;;;;;;;;26.62;50.42;98967.16;5090904;28;19912;-50
2022/06/09 05:11:59;;;;;;;;;;;;;;;26.92;49.69;98957.00;5090803;28;20006;-50
2022/06/09 05:14:24;;;;;;;;;;;;;;;26.86;49.75;98963.78;5091402;28;20307;-50
2022/06/09 05:16:49;;;;;;;;;;;;;;;26.85;49.45;98961.41;5091145;28;19916;-50
2022/06/09 05:19:14;;;;;;;;;;;;;;;27.15;48.92;98967.63;5091207;28;19923;-50
2022/06/09 05:21:40;;;;;;;;;;;;;;;26.97;49.67;98969.66;5090563;28;20303;-50
2022/06/09 05:24:05;;;;;;;;;;;;;;;27.34;48.72;98974.56;5090286;28;19918;-52
2022/06/09 05:26:30;;;;;;;;;;;;;;;27.98;46.84;98967.88;5090324;28;19999;-49
2022/06/09 05:28:56;;;;;;;;;;;;;;;27.78;46.99;98972.22;5090272;28;20003;-48
2022/06/09 05:31:21;;;;;;;;;;;;;;;27.56;47.69;98973.41;5090191;28;19912;-48
2022/06/09 05:33:46;;;;;;;;;;;;;;;27.95;46.88;98972.09;5077162;28;21397;-49
2022/06/09 05:36:11;;;;;;;;;;;;;;;28.38;45.95;98970.00;5075646;28;19983;-50
2022/06/09 05:46:48;;;;;;;;;;;;;;;29.81;42.59;98970.78;5070032;28;19923;-50
2022/06/09 05:49:18;;;;;;;;;;;;;;;29.87;42.13;98961.13;5069647;28;19912;-49
2022/06/09 05:51:44;;;;;;;;;;;;;;;29.53;42.32;98963.34;5069303;28;19964;-49
2022/06/09 05:54:09;;;;;;;;;;;;;;;29.84;42.47;98970.09;5067865;28;19924;-48
2022/06/09 05:56:35;;;;;;;;;;;;;;;29.71;42.61;98963.03;5068182;28;20354;-50
2022/06/09 05:59:00;;;;;;;;;;;;;;;29.67;42.05;98953.94;5068156;28;20191;-50
2022/06/09 06:01:26;;;;;;;;;;;;;;;29.43;43.08;98952.88;5068340;28;19999;-48
2022/06/09 06:03:52;;;;;;;;;;;;;;;29.31;43.13;98961.16;5067714;28;19913;-49
2022/06/09 06:06:35;;;;;;;;;;;;;;;28.37;45.66;98955.53;5068305;28;19935;-50
2022/06/09 06:09:11;;;;;;;;;;;;;;;29.10;44.40;98961.28;5068541;28;19923;-48
2022/06/09 06:11:37;;;;;;;;;;;;;;;29.55;43.65;98954.75;5068585;28;19912;-49
2022/06/09 06:14:02;;;;;;;;;;;;;;;29.79;43.40;98940.16;5068298;28;20015;-49
2022/06/09 06:16:28;;;;;;;;;;;;;;;29.32;43.38;98946.28;5069355;28;19958;-48
2022/06/09 06:18:54;;;;;;;;;;;;;;;28.99;44.28;98942.59;5069757;28;20418;-51
2022/06/09 06:21:19;;;;;;;;;;;;;;;29.14;43.98;98943.06;5085132;28;19974;-48
2022/06/09 06:23:45;;;;;;;;;;;;;;;29.36;44.09;98950.75;5109863;28;20057;-49
2022/06/09 06:26:11;;;;;;;;;;;;;;;29.75;43.35;98953.00;5108813;28;19915;-50
2022/06/09 06:28:36;;;;;;;;;;;;;;;30.27;42.21;98951.16;5089333;28;19977;-49
2022/06/09 06:31:02;;;;;;;;;;;;;;;30.67;41.16;98944.69;5089532;28;20264;-51
2022/06/09 06:33:27;;;;;;;;;;;;;;;31.15;40.07;98951.69;5089467;28;19951;-51
2022/06/09 06:35:53;;;;;;;;;;;;;;;31.18;39.19;98944.66;5089281;28;19955;-51
2022/06/09 06:38:18;;;;;;;;;;;;;;;31.28;39.40;98948.78;5089138;28;19912;-51
2022/06/09 06:40:43;;;;;;;;;;;;;;;31.06;39.75;98942.06;5089400;28;19919;-51
2022/06/09 06:43:09;;;;;;;;;;;;;;;31.50;39.12;98939.84;5089338;28;19916;-51
2022/06/09 06:45:34;;;;;;;;;;;;;;;31.88;38.56;98942.88;5089906;28;19912;-48
2022/06/09 06:48:00;;;;;;;;;;;;;;;32.28;37.29;98942.41;5089360;28;19951;-48
2022/06/09 06:50:25;;;;;;;;;;;;;;;32.73;35.88;98946.28;5089223;28;20368;-51
2022/06/09 06:52:50;;;;;;;;;;;;;;;32.82;35.95;98947.97;5089085;28;19924;-50
2022/06/09 06:55:17;;;;;;;;;;;;;;;32.90;35.80;98946.88;5088192;28;19924;-51
2022/06/09 06:57:42;;;;;;;;;;;;;;;33.11;35.49;98949.97;5089763;28;19920;-49
2022/06/09 07:00:09;;;;;;;;;;;;;;;33.26;34.86;98947.38;5091068;28;19930;-49
2022/06/09 07:02:34;;;;;;;;;;;;;;;33.61;33.74;98935.19;5097109;28;20003;-52
2022/06/09 07:05:00;;;;;;;;;;;;;;;32.75;35.00;98942.34;5090734;28;19999;-50
2022/06/09 07:07:25;;;;;;;;;;;;;;;31.86;37.06;98932.25;5097496;28;19923;-49
2022/06/09 07:09:51;;;;;;;;;;;;;;;32.33;35.94;98930.31;5096876;28;19923;-51
2022/06/09 07:12:16;;;;;;;;;;;;;;;32.49;35.15;98932.91;5093543;28;19922;-48
2022/06/09 07:14:41;;;;;;;;;;;;;;;32.40;35.30;98935.13;5098160;28;19916;-51
2022/06/09 07:17:06;;;;;;;;;;;;;;;33.15;33.88;98935.41;5100820;28;19951;-49
2022/06/09 07:19:32;;;;;;;;;;;;;;;33.10;34.45;98937.34;5102750;28;19916;-51
2022/06/09 07:21:58;;;;;;;;;;;;;;;33.49;33.46;98926.00;5106232;28;19962;-51
2022/06/09 07:24:24;;;;;;;;;;;;;;;34.21;32.13;98917.63;5114058;28;19912;-51
2022/06/09 07:26:49;;;;;;;;;;;;;;;34.88;31.13;98912.97;5113898;28;20303;-38
2022/06/09 07:29:14;;;;;;;;;;;;;;;33.63;32.10;98919.88;5113776;28;19958;-37
2022/06/09 07:31:40;;;;;;;;;;;;;;;33.36;33.15;98910.06;5113233;28;19967;-37
2022/06/09 07:34:06;;;;;;;;;;;;;;;34.31;31.52;98905.91;5113434;28;19912;-37
2022/06/09 07:36:31;;;;;;;;;;;;;;;34.47;31.69;98900.09;5107175;28;19912;-37
2022/06/09 07:38:56;;;;;;;;;;;;;;;34.71;31.34;98908.91;5092808;28;19912;-37
2022/06/09 07:41:21;;;;;;;;;;;;;;;34.43;32.16;98910.31;5092215;28;19916;-37
2022/06/09 07:43:47;;;;;;;;;;;;;;;34.22;31.90;98906.22;5092526;28;19916;-36
2022/06/09 07:46:13;;;;;;;;;;;;;;;33.96;31.90;98914.66;5092654;28;19913;-36
2022/06/09 07:48:39;;;;;;;;;;;;;;;33.22;33.48;98905.19;5092425;28;19923;-37
2022/06/09 07:51:04;;;;;;;;;;;;;;;32.50;35.22;98909.69;5092283;28;19912;-37
2022/06/09 07:53:29;;;;;;;;;;;;;;;31.99;35.38;98913.63;5092137;28;20006;-37
2022/06/09 07:55:55;;;;;;;;;;;;;;;31.59;36.98;98911.31;5092573;28;20006;-37
2022/06/09 07:58:20;;;;;;;;;;;;;;;32.20;35.05;98912.41;5092415;28;19916;-37
2022/06/09 08:00:45;;;;;;;;;;;;;;;32.54;35.36;98911.34;5092727;28;19912;-37
2022/06/09 08:03:16;;;;;;;;;;;;;;;33.18;33.97;98912.63;5092368;28;19923;-38
2022/06/09 08:05:41;;;;;;;;;;;;;;;33.41;33.94;98902.25;5092360;28;19912;-38
2022/06/09 08:08:06;;;;;;;;;;;;;;;34.06;32.94;98892.69;5092304;28;19961;-39
2022/06/09 08:10:32;;;;;;;;;;;;;;;33.77;32.38;98905.41;5092600;28;19912;-36
2022/06/09 08:12:59;;;;;;;;;;;;;;;33.46;33.83;98903.91;5091738;28;19916;-37
2022/06/09 08:15:24;;;;;;;;;;;;;;;33.36;33.47;98910.88;5091553;28;19912;-38
2022/06/09 08:17:51;;;;;;;;;;;;;;;34.10;32.31;98903.75;5092329;28;20386;-51
2022/06/09 08:20:16;;;;;;;;;;;;;;;34.50;32.01;98896.56;5092116;28;19912;-49
2022/06/09 08:22:43;;;;;;;;;;;;;;;35.14;31.40;98906.38;5092311;28;19912;-52
2022/06/09 08:25:10;;;;;;;;;;;;;;;35.13;31.75;98902.00;5091829;28;20007;-49
2022/06/09 08:27:35;;;;;;;;;;;;;;;35.92;29.95;98889.19;5092179;28;19940;-50
2022/06/09 08:30:01;;;;;;;;;;;;;;;36.31;29.40;98893.13;5091582;28;19916;-49
2022/06/09 08:32:26;;;;;;;;;;;;;;;36.63;29.86;98893.06;5091047;28;20011;-50
2022/06/09 08:34:51;;;;;;;;;;;;;;;36.79;28.70;98887.91;5091031;28;20466;-51
2022/06/09 08:37:17;;;;;;;;;;;;;;;36.97;28.24;98885.06;5091276;28;19922;-50
2022/06/09 08:39:42;;;;;;;;;;;;;;;36.44;28.90;98879.66;5091691;28;19918;-51
2022/06/09 08:42:13;;;;;;;;;;;;;;;35.69;30.35;98872.19;5091328;28;20307;-51
2022/06/09 08:44:55;;;;;;;;;;;;;;;35.81;30.08;98869.00;5091304;28;19911;-49
2022/06/09 08:47:33;;;;;;;;;;;;;;;36.38;28.81;98857.91;5090861;28;19947;-50
2022/06/09 08:50:12;;;;;;;;;;;;;;;36.41;28.69;98859.09;5091022;28;19912;-49
2022/06/09 08:52:47;;;;;;;;;;;;;;;36.73;27.88;98858.25;5091028;28;19927;-50
2022/06/09 08:55:24;;;;;;;;;;;;;;;35.61;29.40;98811.28;5091007;28;19912;-48
2022/06/09 08:57:51;;;;;;;;;;;;;;;34.88;30.61;98839.16;5090884;28;19938;-48
2022/06/09 09:00:19;;;;;;;;;;;;;;;33.21;32.59;98840.25;5091642;28;19916;-49
2022/06/09 09:02:48;;;;;;;;;;;;;;;32.70;33.25;98831.34;5091262;28;20406;-48
2022/06/09 09:05:13;;;;;;;;;;;;;;;33.08;32.73;98834.16;5091598;28;19916;-48
2022/06/09 09:07:42;;;;;;;;;;;;;;;33.13;31.26;98833.84;5091023;28;20317;-48
2022/06/09 09:10:22;;;;;;;;;;;;;;;33.73;30.74;98834.84;5090893;28;19916;-51
2022/06/09 09:12:47;;;;;;;;;;;;;;;33.75;29.98;98836.03;5090744;28;20457;-37
2022/06/09 09:15:22;;;;;;;;;;;;;;;34.24;29.02;98823.81;5089559;28;19912;-37
2022/06/09 09:17:48;;;;;;;;;;;;;;;34.96;28.16;98815.91;5089417;28;19930;-37
2022/06/09 09:20:16;;;;;;;;;;;;;;;35.62;28.74;98826.72;5090195;28;19912;-37
2022/06/09 09:22:50;;;;;;;;;;;;;;;35.52;28.11;98824.72;5110259;28;19916;-37
2022/06/09 09:25:24;;;;;;;;;;;;;;;36.06;27.47;98827.47;5111178;28;20302;-37
2022/06/09 09:27:49;;;;;;;;;;;;;;;36.40;26.79;98827.06;5110932;28;19927;-37
2022/06/09 09:30:19;;;;;;;;;;;;;;;36.75;26.21;98826.19;5109990;28;19918;-37
2022/06/09 09:32:49;;;;;;;;;;;;;;;36.73;26.10;98822.22;5109487;28;19931;-37
2022/06/09 09:35:17;;;;;;;;;;;;;;;36.73;26.67;98808.38;5109673;28;20400;-37
2022/06/09 09:37:46;;;;;;;;;;;;;;;37.25;25.20;98816.81;5108816;28;20396;-37
2022/06/09 09:40:14;;;;;;;;;;;;;;;37.21;25.14;98802.19;5109825;28;20408;-39
2022/06/09 09:42:42;;;;;;;;;;;;;;;37.82;24.73;98812.06;5110022;28;20004;-38
2022/06/09 09:45:10;;;;;;;;;;;;;;;38.33;24.19;98800.06;5110687;28;20022;-38
2022/06/09 09:47:45;;;;;;;;;;;;;;;38.18;23.60;98798.66;5110956;28;19943;-38
2022/06/09 09:50:18;;;;;;;;;;;;;;;37.50;24.72;98802.78;5110559;28;20358;-36
2022/06/09 09:52:45;;;;;;;;;;;;;;;36.58;26.18;98797.31;5111121;28;19916;-37
2022/06/09 09:55:43;;;;;;;;;;;;;;;35.33;27.48;98800.19;5110933;28;19912;-37
2022/06/09 09:58:25;;;;;;;;;;;;;;;34.47;29.75;98792.38;5083906;28;20027;-37
2022/06/09 10:00:55;;;;;;;;;;;;;;;34.92;29.36;98786.66;5090625;28;19996;-36
2022/06/09 10:09:11;;;;;;;;;;;;;;;32.34;34.06;98792.31;5090611;28;19938;-38
2022/06/09 10:11:55;;;;;;;;;;;;;;;32.46;33.95;98773.97;5090334;28;19934;-37
2022/06/09 10:14:36;;;;;;;;;;;;;;;32.22;34.12;98775.25;5090176;28;19935;-37
2022/06/09 10:17:04;;;;;;;;;;;;;;;32.04;34.26;98777.72;5090611;28;19950;-38
2022/06/09 10:19:31;;;;;;;;;;;;;;;31.92;34.68;98795.22;5089637;28;19916;-37
2022/06/09 10:21:58;;;;;;;;;;;;;;;31.32;35.48;98782.00;5089756;28;19948;-37
2022/06/09 10:24:35;;;;;;;;;;;;;;;30.74;36.30;98769.16;5090289;28;20359;-38
2022/06/09 10:27:01;;;;;;;;;;;;;;;30.47;36.02;98763.50;5090211;28;19913;-37
2022/06/09 10:29:26;;;;;;;;;;;;;;;30.45;36.42;98748.56;5089986;28;19912;-37
2022/06/09 10:32:03;;;;;;;;;;;;;;;31.05;35.45;98762.69;5089505;28;19931;-37
2022/06/09 10:34:28;;;;;;;;;;;;;;;31.50;34.49;98752.13;5089502;28;19916;-38
2022/06/09 10:37:01;;;;;;;;;;;;;;;30.54;36.66;98749.94;5089625;28;19991;-38
2022/06/09 10:39:44;;;;;;;;;;;;;;;30.72;35.63;98749.50;5089973;28;20315;-37
2022/06/09 10:42:25;;;;;;;;;;;;;;;30.80;35.80;98735.53;5090026;28;19970;-36
2022/06/09 10:44:54;;;;;;;;;;;;;;;30.91;35.74;98751.47;5089607;28;19919;-38
2022/06/09 10:56:16;;;;;;;;;;;;;;;29.95;39.60;98718.06;5093238;28;19919;-36
2022/06/09 10:58:48;;;;;;;;;;;;;;;30.04;37.55;98709.63;5093588;28;20069;-38
2022/06/09 11:01:18;;;;;;;;;;;;;;;29.85;39.74;98705.69;5093917;28;20002;-38
2022/06/09 11:03:47;;;;;;;;;;;;;;;30.23;38.10;98711.63;5093424;28;20290;-38
2022/06/09 11:06:27;;;;;;;;;;;;;;;29.93;37.21;98703.91;5093597;28;20318;-37
2022/06/09 11:09:01;;;;;;;;;;;;;;;29.66;38.43;98689.19;5093360;28;20416;-37
2022/06/09 11:11:26;;;;;;;;;;;;;;;29.94;36.99;98698.06;5093839;28;19918;-38
2022/06/09 11:14:30;;;;;;;;;;;;;;;29.67;37.57;98694.31;5093513;28;20007;-37
2022/06/09 11:17:04;;;;;;;;;;;;;;;29.89;37.51;98678.38;5070908;28;19912;-37
2022/06/09 11:19:35;;;;;;;;;;;;;;;29.94;36.96;98680.84;5070986;28;20410;-38
2022/06/09 11:22:19;;;;;;;;;;;;;;;29.67;37.04;98680.59;5097270;28;19912;-37
2022/06/09 11:24:56;;;;;;;;;;;;;;;29.41;38.62;98681.97;5113669;28;19961;-37
2022/06/09 11:27:30;;;;;;;;;;;;;;;29.96;37.07;98684.00;5113634;28;19949;-37
2022/06/09 11:29:55;;;;;;;;;;;;;;;30.20;36.48;98672.78;5113984;28;20387;-37
2022/06/09 11:32:39;;;;;;;;;;;;;;;29.54;37.41;98685.41;5113168;28;19979;-37
2022/06/09 11:35:15;;;;;;;;;;;;;;;29.41;38.27;98671.00;5113523;28;19965;-38
2022/06/09 11:37:46;;;;;;;;;;;;;;;29.16;37.92;98672.34;5112779;28;19938;-37
2022/06/09 11:40:23;;;;;;;;;;;;;;;29.43;37.85;98662.44;5113219;28;19915;-37
2022/06/09 11:42:52;;;;;;;;;;;;;;;29.79;36.96;98668.75;5113365;28;20006;-37
2022/06/09 11:45:21;;;;;;;;;;;;;;;30.31;35.35;98670.25;5113582;28;19923;-37
2022/06/09 11:47:47;;;;;;;;;;;;;;;30.42;35.77;98666.94;5112968;28;19919;-38
2022/06/09 11:50:15;;;;;;;;;;;;;;;30.05;35.63;98664.63;5113476;28;20306;-37
2022/06/09 11:52:44;;;;;;;;;;;;;;;30.25;35.19;98660.72;5113082;28;19954;-37
2022/06/09 11:55:28;;;;;;;;;;;;;;;30.45;35.28;98667.03;5113042;28;19915;-37
2022/06/09 11:57:53;;;;;;;;;;;;;;;30.17;36.43;98672.69;5113178;28;19912;-37
2022/06/09 12:00:18;;;;;;;;;;;;;;;30.84;35.29;98680.69;5112407;28;19912;-37
2022/06/09 12:02:44;;;;;;;;;;;;;;;30.66;35.39;98685.84;5112820;28;19923;-37
2022/06/09 12:05:09;;;;;;;;;;;;;;;30.22;35.63;98677.91;5112982;28;19915;-38
2022/06/09 12:07:45;;;;;;;;;;;;;;;29.74;36.38;98689.03;5113203;28;20311;-38
2022/06/09 12:10:29;;;;;;;;;;;;;;;29.81;34.41;98674.69;5113079;28;19935;-37
2022/06/09 12:13:23;;;;;;;;;;;;;;;30.55;33.71;98673.88;5112615;28;19919;-37
2022/06/09 12:15:58;;;;;;;;;;;;;;;31.22;32.47;98686.47;5107488;28;19920;-36
2022/06/09 12:18:29;;;;;;;;;;;;;;;31.93;30.55;98684.81;5106623;28;19923;-36
2022/06/09 12:21:04;;;;;;;;;;;;;;;31.59;32.11;98692.19;5097051;28;19961;-37
2022/06/09 12:23:29;;;;;;;;;;;;;;;32.09;31.06;98692.91;5112400;28;19911;-37
2022/06/09 12:26:09;;;;;;;;;;;;;;;32.45;30.39;98687.84;5112429;28;19919;-37
2022/06/09 12:28:50;;;;;;;;;;;;;;;31.88;30.73;98681.59;5112387;28;19968;-37
2022/06/09 12:31:17;;;;;;;;;;;;;;;31.70;30.94;98693.16;5112187;28;19911;-38
2022/06/09 12:33:53;;;;;;;;;;;;;;;32.22;29.22;98681.69;5111946;28;20102;-37
2022/06/09 12:36:33;;;;;;;;;;;;;;;32.78;28.70;98680.75;5112813;28;20234;-38
2022/06/09 12:39:00;;;;;;;;;;;;;;;32.18;29.60;98678.88;5112344;28;19911;-37
2022/06/09 12:41:30;;;;;;;;;;;;;;;32.47;30.00;98670.97;5112186;28;19919;-37
2022/06/09 12:44:16;;;;;;;;;;;;;;;32.33;29.36;98680.63;5112075;28;19953;-37
2022/06/09 12:46:42;;;;;;;;;;;;;;;33.02;28.75;98687.66;5111858;28;20625;-36
2022/06/09 12:49:14;;;;;;;;;;;;;;;33.16;28.90;98697.28;5112038;28;19912;-37
2022/06/09 12:51:40;;;;;;;;;;;;;;;32.76;29.66;98690.56;5111745;28;19912;-37
2022/06/09 12:54:07;;;;;;;;;;;;;;;32.05;29.84;98696.78;5112005;28;20284;-37
2022/06/09 12:56:44;;;;;;;;;;;;;;;31.38;30.57;98698.91;5112023;28;19968;-37
2022/06/09 12:59:25;;;;;;;;;;;;;;;31.79;30.71;98706.59;5110621;28;19943;-35
2022/06/09 13:01:53;;;;;;;;;;;;;;;31.61;29.83;98700.06;5112031;28;20410;-37
2022/06/09 13:04:19;;;;;;;;;;;;;;;31.95;29.67;98690.75;5112045;28;19969;-37
2022/06/09 13:06:47;;;;;;;;;;;;;;;31.79;30.31;98695.59;5112001;28;20164;-37
2022/06/09 13:09:15;;;;;;;;;;;;;;;31.91;29.67;98708.34;5111791;28;20322;-37
2022/06/09 13:14:25;;;;;;;;;;;;;;;31.22;31.09;98694.69;5111471;28;20354;-37
2022/06/09 13:16:54;;;;;;;;;;;;;;;29.90;32.86;98674.50;5111893;28;19955;-37
2022/06/09 13:19:23;;;;;;;;;;;;;;;29.43;33.74;98696.13;5098232;28;19941;-37
2022/06/09 13:21:48;;;;;;;;;;;;;;;29.48;33.80;98700.53;5091070;28;19923;-37